createdAt,value
2017-10-14T00:01:54.978Z,83.80
2017-10-14T00:04:22.642Z,83.60
2017-10-14T00:06:50.731Z,83.90
2017-10-14T00:09:18.376Z,84.00
2017-10-14T00:11:46.027Z,83.50
2017-10-14T00:14:13.822Z,83.70
2017-10-14T00:16:41.563Z,84.10
2017-10-14T00:19:09.314Z,84.10
2017-10-14T00:21:37.013Z,84.10
2017-10-14T00:24:04.687Z,84.40
2017-10-14T00:26:32.394Z,85.20
2017-10-14T00:29:00.302Z,85.50
2017-10-14T00:31:27.947Z,85.70
2017-10-14T00:33:55.694Z,85.90
2017-10-14T00:36:23.441Z,86.30
2017-10-14T00:38:51.189Z,86.30
2017-10-14T00:41:18.843Z,86.80
2017-10-14T00:43:46.579Z,86.80
2017-10-14T00:46:14.330Z,86.90
2017-10-14T00:48:42.074Z,86.70
2017-10-14T00:51:09.791Z,86.90
2017-10-14T00:53:37.569Z,86.90
2017-10-14T00:56:05.333Z,86.50
2017-10-14T00:58:33.116Z,86.50
2017-10-14T01:01:00.792Z,86.60
2017-10-14T01:03:28.561Z,86.90
2017-10-14T01:05:56.308Z,87.10
2017-10-14T01:08:23.974Z,86.50
2017-10-14T01:10:52.084Z,86.00
2017-10-14T01:13:19.791Z,86.00
2017-10-14T01:15:47.459Z,85.50
2017-10-14T01:18:15.146Z,85.00
2017-10-14T01:20:43.098Z,84.60
2017-10-14T01:23:10.845Z,84.20
2017-10-14T01:25:38.551Z,83.90
2017-10-14T01:28:06.365Z,84.20
2017-10-14T01:30:34.073Z,84.30
2017-10-14T01:33:01.777Z,83.90
2017-10-14T01:35:29.618Z,84.10
2017-10-14T01:37:57.740Z,84.80
2017-10-14T01:40:25.488Z,84.80
2017-10-14T01:42:53.336Z,85.10
2017-10-14T01:45:21.052Z,85.50
2017-10-14T01:47:48.778Z,85.60
2017-10-14T01:50:16.567Z,85.60
2017-10-14T01:52:44.325Z,85.30
2017-10-14T01:55:12.024Z,85.20
2017-10-14T01:57:39.923Z,85.30
2017-10-14T02:00:07.666Z,85.00
2017-10-14T02:02:35.398Z,84.80
2017-10-14T02:05:03.152Z,85.00
2017-10-14T02:07:30.851Z,84.70
2017-10-14T02:09:58.555Z,84.70
2017-10-14T02:12:26.300Z,84.40
2017-10-14T02:14:54.054Z,85.00
2017-10-14T02:17:21.704Z,85.20
2017-10-14T02:19:49.446Z,85.30
2017-10-14T02:22:17.193Z,85.60
2017-10-14T02:24:44.940Z,85.50
2017-10-14T02:27:12.690Z,85.10
2017-10-14T02:29:40.342Z,84.60
2017-10-14T02:32:08.015Z,84.80
2017-10-14T02:34:36.149Z,85.80
2017-10-14T02:37:03.838Z,85.80
2017-10-14T02:39:31.532Z,86.00
2017-10-14T02:41:59.224Z,85.70
2017-10-14T02:44:26.877Z,85.60
2017-10-14T02:46:54.547Z,85.60
2017-10-14T02:49:22.314Z,85.30
2017-10-14T02:51:50.062Z,85.80
2017-10-14T02:54:17.808Z,85.70
2017-10-14T02:56:45.555Z,85.90
2017-10-14T02:59:13.198Z,86.20
2017-10-14T03:01:40.947Z,86.20
2017-10-14T03:04:08.694Z,85.60
2017-10-14T03:06:36.407Z,85.60
2017-10-14T03:09:04.294Z,85.40
2017-10-14T03:11:32.087Z,85.40
2017-10-14T03:13:59.747Z,85.60
2017-10-14T03:16:27.388Z,85.70
2017-10-14T03:18:55.108Z,85.80
2017-10-14T03:21:23.184Z,86.00
2017-10-14T03:23:50.880Z,86.00
2017-10-14T03:26:18.626Z,86.60
2017-10-14T03:28:46.275Z,86.70
2017-10-14T03:31:13.925Z,86.60
2017-10-14T03:33:41.871Z,86.80
2017-10-14T03:36:10.536Z,86.40
2017-10-14T03:38:38.220Z,86.30
2017-10-14T03:41:06.037Z,86.20
2017-10-14T03:43:33.788Z,86.40
2017-10-14T03:46:01.529Z,86.90
2017-10-14T03:48:29.218Z,87.40
2017-10-14T03:50:56.923Z,87.20
2017-10-14T03:53:24.587Z,87.20
2017-10-14T03:55:52.683Z,87.50
2017-10-14T03:58:20.334Z,87.50
2017-10-14T04:00:48.012Z,87.70
2017-10-14T04:03:15.759Z,87.80
2017-10-14T04:05:43.406Z,87.50
2017-10-14T04:08:11.155Z,87.40
2017-10-14T04:10:38.867Z,87.40
2017-10-14T04:13:06.575Z,88.50
2017-10-14T04:15:34.273Z,89.20
2017-10-14T04:18:01.986Z,89.80
2017-10-14T04:20:29.787Z,89.90
2017-10-14T04:22:57.480Z,90.10
2017-10-14T04:25:25.222Z,89.50
2017-10-14T04:27:53.031Z,89.20
2017-10-14T04:30:20.686Z,89.00
2017-10-14T04:32:48.487Z,88.50
2017-10-14T04:35:16.127Z,88.50
2017-10-14T04:37:43.813Z,87.80
2017-10-14T04:40:11.619Z,88.50
2017-10-14T04:42:39.289Z,88.40
2017-10-14T04:45:07.056Z,88.30
2017-10-14T04:47:34.801Z,88.00
2017-10-14T04:50:02.466Z,87.40
2017-10-14T04:52:30.197Z,87.50
2017-10-14T04:54:57.944Z,87.40
2017-10-14T04:57:25.691Z,87.40
2017-10-14T04:59:53.335Z,87.60
2017-10-14T05:02:21.179Z,87.50
2017-10-14T05:04:48.934Z,87.60
2017-10-14T05:07:16.680Z,87.50
2017-10-14T05:09:44.631Z,87.20
2017-10-14T05:12:12.380Z,87.60
2017-10-14T05:14:40.060Z,87.80
2017-10-14T05:17:08.195Z,87.60
2017-10-14T05:19:36.275Z,87.60
2017-10-14T05:22:04.060Z,87.60
2017-10-14T05:24:31.764Z,87.40
2017-10-14T05:26:59.795Z,87.20
2017-10-14T05:29:27.534Z,87.20
2017-10-14T05:31:55.227Z,87.10
2017-10-14T05:34:22.894Z,87.20
2017-10-14T05:36:50.582Z,87.10
2017-10-14T05:39:18.515Z,87.10
2017-10-14T05:41:46.271Z,87.20
2017-10-14T05:44:14.020Z,87.10
2017-10-14T05:46:41.714Z,86.90
2017-10-14T05:49:09.408Z,86.90
2017-10-14T05:51:37.105Z,86.70
2017-10-14T05:54:04.862Z,86.50
2017-10-14T05:56:32.526Z,87.10
2017-10-14T05:59:00.196Z,87.60
2017-10-14T06:01:27.944Z,87.90
2017-10-14T06:03:55.691Z,88.30
2017-10-14T06:06:23.363Z,88.60
2017-10-14T06:08:51.494Z,88.50
2017-10-14T06:11:19.240Z,88.50
2017-10-14T06:13:46.987Z,88.20
2017-10-14T06:16:14.734Z,88.20
2017-10-14T06:18:42.380Z,88.90
2017-10-14T06:21:10.068Z,88.70
2017-10-14T06:23:37.928Z,88.10
2017-10-14T06:26:05.722Z,87.80
2017-10-14T06:28:33.424Z,87.40
2017-10-14T06:31:01.220Z,87.10
2017-10-14T06:33:28.967Z,87.00
2017-10-14T06:35:56.717Z,86.80
2017-10-14T06:38:24.564Z,86.70
2017-10-14T06:40:52.312Z,86.10
2017-10-14T06:43:19.973Z,85.70
2017-10-14T06:45:47.805Z,84.90
2017-10-14T06:48:15.516Z,84.60
2017-10-14T06:50:43.227Z,84.60
2017-10-14T06:53:11.457Z,84.10
2017-10-14T06:55:39.203Z,84.10
2017-10-14T06:58:06.951Z,83.60
2017-10-14T07:00:34.822Z,83.50
2017-10-14T07:03:02.957Z,83.20
2017-10-14T07:05:30.707Z,83.20
2017-10-14T07:07:58.455Z,82.90
2017-10-14T07:10:26.209Z,82.50
2017-10-14T07:12:53.950Z,82.40
2017-10-14T07:15:22.024Z,82.30
2017-10-14T07:17:49.752Z,81.90
2017-10-14T07:20:17.400Z,81.70
2017-10-14T07:22:45.141Z,81.80
2017-10-14T07:25:12.890Z,81.90
2017-10-14T07:27:40.558Z,81.80
2017-10-14T07:30:08.663Z,81.30
2017-10-14T07:32:36.342Z,81.30
2017-10-14T07:35:04.032Z,81.20
2017-10-14T07:37:31.833Z,80.80
2017-10-14T07:39:59.580Z,80.90
2017-10-14T07:42:27.298Z,80.40
2017-10-14T07:44:55.074Z,80.60
2017-10-14T07:47:22.732Z,81.20
2017-10-14T07:49:50.467Z,81.10
2017-10-14T07:52:18.302Z,80.30
2017-10-14T07:54:46.064Z,80.30
2017-10-14T07:57:13.811Z,79.50
2017-10-14T07:59:41.559Z,79.30
2017-10-14T08:02:09.211Z,79.50
2017-10-14T08:04:36.875Z,78.40
2017-10-14T08:07:05.080Z,78.70
2017-10-14T08:09:33.059Z,78.70
2017-10-14T08:12:00.808Z,78.00
2017-10-14T08:14:28.555Z,77.90
2017-10-14T08:16:56.203Z,77.20
2017-10-14T08:19:23.863Z,76.00
2017-10-14T08:21:51.998Z,75.20
2017-10-14T08:24:19.749Z,75.50
2017-10-14T08:26:47.496Z,76.30
2017-10-14T08:29:15.346Z,76.20
2017-10-14T08:31:43.004Z,76.20
2017-10-14T08:34:10.739Z,76.70
2017-10-14T08:36:38.463Z,75.20
2017-10-14T08:39:06.159Z,75.60
2017-10-14T08:41:34.697Z,74.20
2017-10-14T08:44:02.442Z,74.20
2017-10-14T08:46:30.194Z,74.30
2017-10-14T08:48:57.940Z,75.20
2017-10-14T08:51:25.687Z,73.50
2017-10-14T08:53:53.436Z,73.80
2017-10-14T08:56:21.182Z,73.20
2017-10-14T08:58:48.887Z,72.70
2017-10-14T09:01:16.676Z,71.10
2017-10-14T09:03:44.324Z,71.20
2017-10-14T09:06:12.036Z,71.10
2017-10-14T09:08:39.684Z,71.10
2017-10-14T09:11:07.343Z,71.60
2017-10-14T09:13:35.105Z,71.70
2017-10-14T09:16:02.853Z,71.20
2017-10-14T09:18:30.602Z,71.30
2017-10-14T09:20:58.350Z,71.20
2017-10-14T09:23:25.995Z,71.40
2017-10-14T09:25:53.742Z,71.70
2017-10-14T09:28:21.591Z,71.10
2017-10-14T09:30:49.338Z,70.90
2017-10-14T09:33:16.992Z,70.30
2017-10-14T09:35:44.731Z,70.20
2017-10-14T09:38:12.423Z,71.00
2017-10-14T09:40:40.225Z,70.50
2017-10-14T09:43:07.931Z,70.60
2017-10-14T09:45:35.617Z,69.60
2017-10-14T09:48:03.285Z,70.40
2017-10-14T09:50:31.391Z,69.20
2017-10-14T09:52:59.074Z,69.20
2017-10-14T09:55:26.818Z,68.90
2017-10-14T09:57:54.663Z,69.50
2017-10-14T10:00:22.410Z,69.20
2017-10-14T10:02:50.157Z,69.00
2017-10-14T10:05:17.864Z,70.10
2017-10-14T10:07:45.540Z,69.20
2017-10-14T10:10:13.192Z,69.30
2017-10-14T10:12:40.907Z,70.10
2017-10-14T10:15:08.687Z,69.80
2017-10-14T10:17:36.436Z,69.90
2017-10-14T10:20:04.156Z,69.60
2017-10-14T10:22:31.812Z,69.20
2017-10-14T10:24:59.474Z,69.30
2017-10-14T10:27:27.185Z,70.10
2017-10-14T10:29:54.881Z,69.90
2017-10-14T10:32:22.716Z,70.00
2017-10-14T10:34:50.451Z,69.30
2017-10-14T10:37:18.239Z,68.40
2017-10-14T10:39:46.573Z,67.80
2017-10-14T10:42:14.743Z,67.80
2017-10-14T10:44:42.481Z,66.70
2017-10-14T10:47:10.223Z,66.80
2017-10-14T10:49:37.923Z,65.70
2017-10-14T10:52:05.736Z,67.70
2017-10-14T10:54:33.400Z,66.70
2017-10-14T10:57:01.625Z,64.80
2017-10-14T10:59:29.269Z,64.80
2017-10-14T11:01:57.017Z,64.50
2017-10-14T11:04:24.713Z,65.40
2017-10-14T11:06:52.357Z,65.70
2017-10-14T11:09:20.003Z,65.70
2017-10-14T11:11:47.726Z,63.80
2017-10-14T11:14:15.768Z,64.30
2017-10-14T11:16:43.499Z,64.30
2017-10-14T11:19:11.348Z,65.20
2017-10-14T11:21:39.097Z,65.10
2017-10-14T11:24:06.843Z,64.20
2017-10-14T11:26:34.592Z,65.40
2017-10-14T11:29:02.249Z,65.00
2017-10-14T11:31:29.905Z,64.00
2017-10-14T11:33:57.630Z,64.10
2017-10-14T11:36:25.287Z,63.30
2017-10-14T11:38:52.945Z,63.20
2017-10-14T11:41:21.076Z,62.70
2017-10-14T11:43:48.824Z,62.70
2017-10-14T11:46:16.571Z,62.60
2017-10-14T11:48:44.276Z,62.50
2017-10-14T11:51:11.934Z,63.50
2017-10-14T11:53:39.607Z,64.90
2017-10-14T11:56:07.359Z,65.10
2017-10-14T11:58:35.008Z,66.60
2017-10-14T12:01:02.675Z,67.10
2017-10-14T12:03:30.790Z,66.80
2017-10-14T12:05:58.434Z,66.80
2017-10-14T12:08:26.076Z,64.90
2017-10-14T12:10:53.871Z,65.60
2017-10-14T12:13:21.912Z,63.60
2017-10-14T12:15:49.567Z,63.60
2017-10-14T12:18:17.699Z,61.70
2017-10-14T12:20:45.447Z,61.70
2017-10-14T12:23:13.191Z,62.20
2017-10-14T12:25:40.951Z,61.20
2017-10-14T12:28:08.685Z,62.00
2017-10-14T12:30:36.435Z,61.00
2017-10-14T12:33:04.180Z,61.50
2017-10-14T12:35:31.928Z,61.60
2017-10-14T12:37:59.575Z,60.80
2017-10-14T12:40:27.323Z,60.30
2017-10-14T12:42:55.019Z,60.20
2017-10-14T12:45:22.714Z,59.20
2017-10-14T12:47:50.440Z,59.90
2017-10-14T12:50:18.079Z,59.50
2017-10-14T12:52:45.756Z,58.70
2017-10-14T12:55:13.601Z,59.50
2017-10-14T12:57:41.348Z,58.80
2017-10-14T13:00:08.995Z,59.40
2017-10-14T13:02:36.739Z,59.90
2017-10-14T13:05:04.487Z,60.20
2017-10-14T13:07:32.141Z,60.50
2017-10-14T13:09:59.844Z,59.50
2017-10-14T13:12:27.495Z,60.60
2017-10-14T13:14:55.171Z,61.00
2017-10-14T13:17:22.906Z,60.20
2017-10-14T13:19:50.555Z,59.30
2017-10-14T13:22:18.314Z,61.00
2017-10-14T13:24:46.003Z,60.90
2017-10-14T13:27:13.646Z,59.80
2017-10-14T13:29:41.300Z,60.40
2017-10-14T13:32:09.024Z,60.30
2017-10-14T13:34:37.076Z,60.20
2017-10-14T13:37:05.154Z,60.00
2017-10-14T13:39:32.953Z,60.10
2017-10-14T13:42:00.701Z,59.70
2017-10-14T13:44:28.448Z,59.90
2017-10-14T13:46:56.297Z,59.70
2017-10-14T13:49:23.956Z,59.90
2017-10-14T13:51:51.648Z,59.50
2017-10-14T13:54:19.410Z,59.30
2017-10-14T13:56:47.067Z,59.50
2017-10-14T13:59:14.833Z,59.80
2017-10-14T14:01:42.539Z,59.70
2017-10-14T14:04:10.179Z,58.80
2017-10-14T14:06:37.863Z,60.30
2017-10-14T14:09:05.648Z,60.50
2017-10-14T14:11:33.871Z,60.90
2017-10-14T14:14:01.925Z,60.90
2017-10-14T14:16:29.658Z,60.90
2017-10-14T14:18:57.303Z,60.40
2017-10-14T14:21:25.068Z,60.90
2017-10-14T14:23:52.815Z,61.60
2017-10-14T14:26:20.460Z,62.50
2017-10-14T14:28:48.116Z,62.70
2017-10-14T14:31:15.820Z,63.20
2017-10-14T14:33:43.598Z,63.60
2017-10-14T14:36:11.243Z,63.90
2017-10-14T14:38:39.093Z,63.40
2017-10-14T14:41:06.803Z,63.20
2017-10-14T14:43:34.463Z,64.10
2017-10-14T14:46:02.255Z,64.00
2017-10-14T14:48:30.391Z,64.30
2017-10-14T14:50:58.139Z,64.30
2017-10-14T14:53:25.887Z,64.40
2017-10-14T14:55:53.633Z,64.40
2017-10-14T14:58:21.483Z,63.40
2017-10-14T15:00:49.333Z,64.00
2017-10-14T15:03:17.079Z,65.00
2017-10-14T15:05:44.741Z,65.70
2017-10-14T15:08:12.471Z,65.30
2017-10-14T15:10:40.218Z,66.50
2017-10-14T15:13:07.883Z,66.70
2017-10-14T15:15:35.712Z,67.50
2017-10-14T15:18:04.175Z,68.40
2017-10-14T15:20:31.841Z,68.50
2017-10-14T15:22:59.626Z,68.70
2017-10-14T15:25:27.275Z,69.90
2017-10-14T15:27:54.964Z,70.60
2017-10-14T15:30:22.690Z,71.10
2017-10-14T15:32:50.365Z,71.30
2017-10-14T15:35:18.012Z,71.60
2017-10-14T15:37:45.835Z,71.70
2017-10-14T15:40:13.597Z,72.00
2017-10-14T15:42:41.236Z,72.50
2017-10-14T15:45:08.956Z,72.50
2017-10-14T15:47:36.686Z,72.40
2017-10-14T15:50:04.521Z,72.60
2017-10-14T15:52:32.437Z,72.90
2017-10-14T15:55:00.087Z,73.00
2017-10-14T15:57:27.744Z,73.20
2017-10-14T15:59:55.779Z,73.50
2017-10-14T16:02:23.531Z,73.80
2017-10-14T16:04:51.280Z,74.10
2017-10-14T16:07:19.126Z,74.30
2017-10-14T16:09:46.874Z,74.30
2017-10-14T16:12:14.523Z,74.60
2017-10-14T16:14:42.368Z,74.70
2017-10-14T16:17:10.117Z,75.50
2017-10-14T16:19:37.792Z,75.90
2017-10-14T16:22:06.026Z,75.90
2017-10-14T16:24:33.767Z,75.90
2017-10-14T16:27:01.517Z,75.80
2017-10-14T16:29:29.232Z,75.70
2017-10-14T16:31:57.010Z,75.90
2017-10-14T16:34:24.759Z,75.90
2017-10-14T16:36:52.608Z,75.50
2017-10-14T16:39:20.290Z,75.60
2017-10-14T16:41:47.999Z,75.30
2017-10-14T16:44:15.696Z,75.40
2017-10-14T16:46:43.391Z,75.60
2017-10-14T16:49:11.138Z,75.80
2017-10-14T16:51:38.963Z,75.70
2017-10-14T16:54:06.695Z,76.00
2017-10-14T16:56:34.372Z,76.00
2017-10-14T16:59:02.180Z,76.10
2017-10-14T17:01:29.836Z,76.50
2017-10-14T17:03:57.522Z,76.80
2017-10-14T17:06:25.270Z,77.30
2017-10-14T17:08:52.975Z,77.80
2017-10-14T17:11:20.664Z,78.20
2017-10-14T17:13:48.920Z,78.60
2017-10-14T17:16:16.668Z,79.00
2017-10-14T17:18:44.415Z,79.20
2017-10-14T17:21:12.265Z,79.30
2017-10-14T17:23:40.012Z,79.10
2017-10-14T17:26:07.759Z,79.30
2017-10-14T17:28:35.568Z,79.30
2017-10-14T17:31:03.233Z,79.60
2017-10-14T17:33:31.003Z,79.50
2017-10-14T17:35:58.753Z,79.50
2017-10-14T17:38:26.498Z,79.80
2017-10-14T17:40:54.245Z,80.10
2017-10-14T17:43:22.060Z,80.30
2017-10-14T17:45:49.740Z,80.40
2017-10-14T17:48:17.384Z,80.60
2017-10-14T17:50:45.132Z,80.70
2017-10-14T17:53:12.800Z,80.80
2017-10-14T17:55:41.779Z,81.10
2017-10-14T17:58:10.012Z,80.80
2017-10-14T18:00:37.756Z,80.80
2017-10-14T18:03:05.496Z,81.10
2017-10-14T18:05:33.255Z,81.70
2017-10-14T18:08:01.004Z,81.40
2017-10-14T18:10:28.751Z,81.50
2017-10-14T18:12:56.762Z,82.10
2017-10-14T18:15:24.415Z,82.50
2017-10-14T18:17:52.094Z,82.60
2017-10-14T18:20:19.830Z,82.50
2017-10-14T18:22:47.485Z,82.50
2017-10-14T18:25:15.234Z,83.20
2017-10-14T18:27:42.952Z,82.80
2017-10-14T18:30:10.623Z,82.60
2017-10-14T18:32:38.373Z,82.60
2017-10-14T18:35:06.118Z,82.60
2017-10-14T18:37:33.766Z,82.50
2017-10-14T18:40:01.516Z,83.30
2017-10-14T18:42:29.262Z,83.80
2017-10-14T18:44:57.009Z,83.70
2017-10-14T18:47:24.723Z,84.00
2017-10-14T18:49:52.503Z,83.90
2017-10-14T18:52:20.154Z,83.80
2017-10-14T18:54:47.998Z,83.60
2017-10-14T18:57:15.799Z,83.50
2017-10-14T18:59:43.467Z,83.20
2017-10-14T19:02:11.126Z,83.20
2017-10-14T19:04:38.840Z,83.10
2017-10-14T19:07:06.530Z,83.00
2017-10-14T19:09:34.277Z,83.10
2017-10-14T19:12:02.760Z,83.00
2017-10-14T19:14:30.490Z,82.80
2017-10-14T19:16:58.147Z,82.80
2017-10-14T19:19:25.844Z,82.80
2017-10-14T19:21:53.527Z,82.70
2017-10-14T19:24:21.274Z,82.80
2017-10-14T19:26:49.072Z,82.90
2017-10-14T19:29:16.735Z,83.00
2017-10-14T19:31:44.536Z,83.50
2017-10-14T19:34:12.683Z,84.80
2017-10-14T19:36:40.334Z,84.80
2017-10-14T19:39:08.065Z,84.70
2017-10-14T19:41:35.872Z,85.80
2017-10-14T19:44:03.533Z,85.30
2017-10-14T19:46:31.317Z,85.20
2017-10-14T19:48:59.165Z,85.20
2017-10-14T19:51:26.855Z,85.80
2017-10-14T19:53:54.555Z,85.10
2017-10-14T19:56:22.403Z,85.30
2017-10-14T19:58:50.059Z,85.20
2017-10-14T20:01:17.792Z,85.10
2017-10-14T20:03:45.499Z,85.00
2017-10-14T20:06:13.188Z,85.30
2017-10-14T20:08:40.834Z,85.50
2017-10-14T20:11:08.584Z,85.50
2017-10-14T20:13:36.323Z,84.70
2017-10-14T20:16:03.984Z,85.10
2017-10-14T20:18:34.787Z,85.00
2017-10-14T20:21:02.555Z,85.20
2017-10-14T20:23:30.285Z,84.90
2017-10-14T20:25:58.031Z,84.80
2017-10-14T20:28:25.675Z,85.00
2017-10-14T20:30:53.423Z,84.50
2017-10-14T20:33:21.171Z,84.30
2017-10-14T20:35:48.917Z,84.30
2017-10-14T20:38:16.665Z,84.70
2017-10-14T20:40:44.355Z,84.90
2017-10-14T20:43:12.015Z,85.20
2017-10-14T20:45:39.701Z,85.50
2017-10-14T20:50:41.442Z,85.20
2017-10-14T20:53:09.151Z,84.90
2017-10-14T20:55:36.833Z,84.60
2017-10-14T20:58:04.582Z,84.10
2017-10-14T21:00:32.314Z,83.70
2017-10-14T21:02:59.972Z,83.60
2017-10-14T21:05:27.723Z,84.40
2017-10-14T21:07:55.441Z,84.40
2017-10-14T21:10:23.220Z,84.20
2017-10-14T21:12:50.964Z,84.40
2017-10-14T21:15:18.814Z,84.40
2017-10-14T21:17:46.562Z,84.30
2017-10-14T21:20:14.308Z,84.00
2017-10-14T21:22:42.158Z,83.60
2017-10-14T21:25:09.988Z,83.30
2017-10-14T21:27:37.654Z,83.30
2017-10-14T21:30:05.540Z,83.30
2017-10-14T21:32:33.471Z,83.00
2017-10-14T21:35:01.308Z,82.70
2017-10-14T21:37:29.186Z,82.60
2017-10-14T21:39:57.267Z,83.20
2017-10-14T21:42:25.018Z,83.20
2017-10-14T21:44:52.947Z,83.10
2017-10-14T21:47:21.003Z,82.80
2017-10-14T21:49:48.713Z,82.90
2017-10-14T21:52:16.619Z,83.20
2017-10-14T21:54:44.551Z,83.20
2017-10-14T21:57:12.709Z,83.30
2017-10-14T21:59:40.949Z,83.40
2017-10-14T22:02:09.098Z,83.30
2017-10-14T22:04:37.147Z,83.30
2017-10-14T22:07:04.912Z,83.20
2017-10-14T22:09:33.338Z,82.40
2017-10-14T22:12:01.509Z,82.40
2017-10-14T22:14:29.463Z,82.80
2017-10-14T22:16:57.318Z,82.90
2017-10-14T22:19:25.268Z,83.60
2017-10-14T22:21:53.080Z,84.00
2017-10-14T22:24:20.987Z,84.30
2017-10-14T22:26:49.151Z,84.00
2017-10-14T22:29:17.419Z,84.20
2017-10-14T22:31:45.062Z,84.20
2017-10-14T22:34:13.107Z,83.90
2017-10-14T22:36:41.226Z,84.00
2017-10-14T22:39:08.982Z,84.00
2017-10-14T22:41:36.671Z,83.80
2017-10-14T22:44:04.450Z,83.90
2017-10-14T22:46:32.098Z,83.70
2017-10-14T22:48:59.768Z,83.30
2017-10-14T22:51:27.482Z,83.00
2017-10-14T22:53:55.139Z,82.70
2017-10-14T22:56:22.804Z,82.70
2017-10-14T22:58:50.514Z,83.10
2017-10-14T23:01:18.160Z,83.00
2017-10-14T23:03:45.842Z,82.90
2017-10-14T23:06:13.591Z,83.90
2017-10-14T23:08:41.336Z,83.90
2017-10-14T23:11:09.084Z,84.30
2017-10-14T23:13:36.830Z,84.10
2017-10-14T23:16:04.578Z,84.20
2017-10-14T23:18:32.236Z,84.30
2017-10-14T23:21:00.031Z,84.40
2017-10-14T23:23:27.675Z,84.30
2017-10-14T23:25:55.364Z,84.10
2017-10-14T23:28:23.059Z,84.00
2017-10-14T23:30:50.716Z,84.10
2017-10-14T23:33:18.402Z,84.00
2017-10-14T23:35:46.111Z,83.90
2017-10-14T23:38:13.750Z,84.00
2017-10-14T23:40:41.439Z,84.00
2017-10-14T23:43:09.131Z,83.80
2017-10-14T23:45:36.791Z,83.40
2017-10-14T23:48:04.579Z,83.20
2017-10-14T23:50:32.367Z,83.70
2017-10-14T23:53:00.485Z,84.40
2017-10-14T23:55:28.130Z,84.40
2017-10-14T23:57:55.831Z,84.30
